Aguadilla, PR (00603)

8:39 PM AST on March 05, 2015 (GMT -0400)
Manejo de Emergencias Aguadilla | Change Station
CLOSE
Current Station
Personal Weather Station
Location: Aguadilla, PR
Elevation: 60 ft
Nearby Weather Stations

Elev 60 ft 18.44 °N, 67.15 °W | Updated 12 minutes ago

Scattered Clouds
Scattered Clouds
75.4 °F
Feels Like 77 °F
N
11.0
Wind Variable Wind from SSW
Gusts 24.0 mph

Today
High -- | Low -- °F
--% Chance of Precip.
Yesterday
High -- | Low -- °F
Precip. -- in
6:44 AM 6:35 PM
Full, 100% visible
Pressure 30.11 in
Visibility 10.0 miles
Clouds Scattered Clouds 7000 ft
Heat Index 77 °F
Dew Point 66 °F
Humidity 74%
Rainfall in
Snow Depth Not available.
UV 0 out of 12
Pollen Not available.
Air Quality Not available.
Flu Activity Not available.
METAR TJBQ 052350Z 10008G17KT 10SM SCT070 24/17 A3011 RMK RWY08 - ATIS O

More Conditions Fewer Conditions

Pressure 30.11 in
Visibility 10.0 miles
Clouds Scattered Clouds 7000 ft
Heat Index 77 °F
Dew Point 66 °F
Humidity 74%
Rainfall in
Snow Depth Not available.
UV 0 out of 12
Pollen Not available.
Air Quality Not available.
Flu Activity Not available.
METAR TJBQ 052350Z 10008G17KT 10SM SCT070 24/17 A3011 RMK RWY08 - ATIS O

More Conditions Fewer Conditions

10-Day Weather Forecast

Almanac

Astronomy

Mar. 05, 2015 Rise Set
Actual Time
Civil Twilight
Nautical Twilight
Astronomical Twilight
Moon
Length of Visible Light
Length of Day
Tomorrow will be .
, % of the Moon is Illuminated

Today's Extremes

State Highs State Lows

Community

WunderPhotos

Upload Photos

1,803,071 photos uploaded!

WunderBlogs® & News

Nearby

Air Quality

  Air Quality AQ Index Pollutant
Not available.

Snow Depth

Station Depth Elevation

Earthquake Activity

City Distance Mag. Time & Date
Minimum magnitude displayed is 2.5.

Coastal Water Temperatures

Place Temperature

Nearby Weather Stations